createdAt,value
2022-08-23T00:01:21.793Z,17.83
2022-08-23T00:03:51.096Z,17.95
2022-08-23T00:06:17.647Z,18.12
2022-08-23T00:08:48.426Z,18.20
2022-08-23T00:11:34.027Z,18.52
2022-08-23T00:14:01.886Z,18.75
2022-08-23T00:16:28.411Z,18.81
2022-08-23T00:18:55.033Z,18.96
2022-08-23T00:21:21.669Z,18.81
2022-08-23T00:23:48.160Z,18.88
2022-08-23T00:26:14.781Z,18.93
2022-08-23T00:28:41.271Z,19.05
2022-08-23T00:31:07.857Z,19.24
2022-08-23T00:33:34.320Z,19.26
2022-08-23T00:36:00.852Z,19.25
2022-08-23T00:38:34.367Z,19.28
2022-08-23T00:41:01.600Z,19.39
2022-08-23T00:43:48.771Z,19.27
2022-08-23T00:46:33.902Z,19.24
2022-08-23T00:49:00.829Z,19.16
2022-08-23T00:51:28.489Z,19.22
2022-08-23T00:53:56.158Z,19.15
2022-08-23T00:56:22.889Z,19.18
2022-08-23T00:58:49.599Z,19.08
2022-08-23T01:01:16.546Z,19.12
2022-08-23T01:03:45.703Z,19.09
2022-08-23T01:06:24.476Z,19.10
2022-08-23T01:08:55.896Z,18.96
2022-08-23T01:11:25.922Z,19.09
2022-08-23T01:13:57.446Z,19.04
2022-08-23T01:16:35.938Z,18.96
2022-08-23T01:19:02.515Z,18.95
2022-08-23T01:21:33.229Z,19.01
2022-08-23T01:24:03.408Z,18.98
2022-08-23T01:26:32.062Z,19.04
2022-08-23T01:28:58.486Z,19.10
2022-08-23T01:31:25.225Z,18.98
2022-08-23T01:33:54.716Z,18.90
2022-08-23T01:36:22.107Z,18.82
2022-08-23T01:38:48.836Z,18.72
2022-08-23T01:41:15.267Z,18.72
2022-08-23T01:43:41.795Z,18.66
2022-08-23T01:46:19.599Z,18.71
2022-08-23T01:48:46.801Z,18.65
2022-08-23T01:51:14.059Z,18.73
2022-08-23T01:53:41.151Z,18.67
2022-08-23T01:56:08.190Z,18.49
2022-08-23T01:58:35.190Z,18.50
2022-08-23T02:01:02.145Z,18.43
2022-08-23T02:03:29.196Z,18.33
2022-08-23T02:05:56.060Z,18.06
2022-08-23T02:08:41.156Z,17.75
2022-08-23T02:11:12.776Z,17.53
2022-08-23T02:13:39.257Z,17.23
2022-08-23T02:16:05.854Z,17.06
2022-08-23T02:18:32.311Z,16.91
2022-08-23T02:20:59.032Z,16.68
2022-08-23T02:23:25.491Z,16.53
2022-08-23T02:25:52.049Z,16.24
2022-08-23T02:28:19.218Z,16.16
2022-08-23T02:30:45.822Z,16.08
2022-08-23T02:33:13.517Z,16.02
2022-08-23T02:35:42.517Z,15.89
2022-08-23T02:38:10.238Z,15.80
2022-08-23T02:40:37.297Z,15.65
2022-08-23T02:43:04.496Z,15.57
2022-08-23T02:45:31.198Z,15.55
2022-08-23T02:47:57.894Z,15.48
2022-08-23T02:50:24.576Z,15.40
2022-08-23T02:52:51.214Z,15.32
2022-08-23T02:55:17.834Z,15.20
2022-08-23T02:57:44.662Z,15.16
2022-08-23T03:00:11.734Z,15.12
2022-08-23T03:02:38.515Z,15.11
2022-08-23T03:05:06.300Z,15.13
2022-08-23T03:07:33.127Z,15.10
2022-08-23T03:10:01.393Z,15.09
2022-08-23T03:12:28.480Z,15.03
2022-08-23T03:14:55.117Z,14.97
2022-08-23T03:17:21.811Z,15.02
2022-08-23T03:19:48.625Z,15.02
2022-08-23T03:22:15.532Z,14.94
2022-08-23T03:24:42.417Z,14.96
2022-08-23T03:27:09.178Z,14.93
2022-08-23T03:29:35.784Z,14.94
2022-08-23T03:32:02.983Z,14.85
2022-08-23T03:34:29.562Z,14.76
2022-08-23T03:36:56.313Z,14.74
2022-08-23T03:39:23.019Z,14.91
2022-08-23T03:41:49.427Z,14.83
2022-08-23T03:44:15.922Z,14.69
2022-08-23T03:46:42.561Z,14.67
2022-08-23T03:49:09.154Z,14.62
2022-08-23T03:51:35.590Z,14.63
2022-08-23T03:54:02.143Z,14.51
2022-08-23T03:56:29.890Z,14.82
2022-08-23T03:58:57.028Z,15.18
2022-08-23T04:01:28.359Z,15.36
2022-08-23T04:03:55.383Z,15.74
2022-08-23T04:06:21.802Z,15.63
2022-08-23T04:08:48.285Z,15.67
2022-08-23T04:11:14.869Z,15.57
2022-08-23T04:13:42.343Z,15.56
2022-08-23T04:16:09.160Z,15.60
2022-08-23T04:18:36.647Z,15.60
2022-08-23T04:21:05.468Z,15.85
2022-08-23T04:23:32.128Z,15.94
2022-08-23T04:25:58.602Z,15.62
2022-08-23T04:28:25.641Z,15.50
2022-08-23T04:30:52.176Z,15.65
2022-08-23T04:33:18.660Z,15.60
2022-08-23T04:35:47.898Z,15.63
2022-08-23T04:38:24.247Z,15.64
2022-08-23T04:41:11.378Z,15.61
2022-08-23T04:43:38.091Z,15.60
2022-08-23T04:46:05.649Z,15.56
2022-08-23T04:48:32.266Z,15.50
2022-08-23T04:50:59.211Z,15.48
2022-08-23T04:53:25.691Z,15.49
2022-08-23T04:55:52.453Z,15.48
2022-08-23T04:58:19.346Z,15.43
2022-08-23T05:00:51.405Z,15.40
2022-08-23T05:03:18.260Z,15.37
2022-08-23T05:05:44.717Z,15.41
2022-08-23T05:08:11.134Z,15.42
2022-08-23T05:10:37.707Z,15.48
2022-08-23T05:13:04.178Z,15.48
2022-08-23T05:15:30.812Z,15.42
2022-08-23T05:17:57.229Z,15.41
2022-08-23T05:20:23.715Z,15.40
2022-08-23T05:22:50.529Z,15.38
2022-08-23T05:25:17.056Z,15.41
2022-08-23T05:27:44.083Z,15.48
2022-08-23T05:30:14.470Z,15.53
2022-08-23T05:32:42.139Z,15.63
2022-08-23T05:35:08.834Z,15.74
2022-08-23T05:37:35.295Z,15.82
2022-08-23T05:40:01.887Z,15.94
2022-08-23T05:42:28.358Z,15.87
2022-08-23T05:44:54.826Z,15.89
2022-08-23T05:47:24.936Z,15.99
2022-08-23T05:49:51.643Z,16.11
2022-08-23T05:52:18.065Z,16.18
2022-08-23T05:54:44.608Z,16.24
2022-08-23T05:57:11.454Z,16.25
2022-08-23T05:59:39.761Z,16.26
2022-08-23T06:02:06.243Z,16.30
2022-08-23T06:04:33.110Z,16.29
2022-08-23T06:06:59.582Z,16.37
2022-08-23T06:09:26.349Z,16.49
2022-08-23T06:11:52.874Z,16.79
2022-08-23T06:14:19.402Z,17.11
2022-08-23T06:16:46.894Z,17.39
2022-08-23T06:19:14.217Z,17.72
2022-08-23T06:21:41.148Z,17.81
2022-08-23T06:24:07.639Z,17.91
2022-08-23T06:26:38.770Z,18.17
2022-08-23T06:29:07.493Z,18.41
2022-08-23T06:31:47.000Z,18.66
2022-08-23T06:34:18.527Z,18.80
2022-08-23T06:36:46.274Z,19.11
2022-08-23T06:39:13.585Z,19.46
2022-08-23T06:41:40.067Z,19.47
2022-08-23T06:44:08.161Z,19.77
2022-08-23T06:46:34.817Z,20.10
2022-08-23T06:49:05.112Z,20.46
2022-08-23T06:51:33.250Z,20.67
2022-08-23T06:54:03.174Z,20.84
2022-08-23T06:56:29.951Z,20.95
2022-08-23T06:58:56.489Z,20.72
2022-08-23T07:01:44.531Z,20.68
2022-08-23T07:04:12.473Z,20.81
2022-08-23T07:06:39.010Z,20.86
2022-08-23T07:09:05.749Z,20.89
2022-08-23T07:11:33.025Z,21.04
2022-08-23T07:14:01.062Z,21.22
2022-08-23T07:16:48.071Z,21.52
2022-08-23T07:19:15.311Z,21.70
2022-08-23T07:21:42.613Z,21.90
2022-08-23T07:24:09.311Z,22.06
2022-08-23T07:26:36.380Z,22.02
2022-08-23T07:29:04.212Z,22.08
2022-08-23T07:31:31.294Z,22.35
2022-08-23T07:33:58.861Z,22.46
2022-08-23T07:36:27.969Z,22.49
2022-08-23T07:38:54.633Z,22.63
2022-08-23T07:41:23.741Z,22.53
2022-08-23T07:43:50.454Z,22.64
2022-08-23T07:46:17.033Z,22.87
2022-08-23T07:48:53.967Z,22.87
2022-08-23T07:51:21.135Z,22.69
2022-08-23T07:53:48.040Z,22.84
2022-08-23T07:56:15.734Z,22.87
2022-08-23T07:58:42.255Z,22.83
2022-08-23T08:01:19.172Z,23.14
2022-08-23T08:03:46.830Z,23.36
2022-08-23T08:06:16.504Z,23.07
2022-08-23T08:11:25.571Z,23.36
2022-08-23T08:13:52.323Z,23.55
2022-08-23T08:16:22.742Z,23.46
2022-08-23T08:18:49.574Z,23.67
2022-08-23T08:21:19.107Z,23.76
2022-08-23T08:23:45.614Z,23.69
2022-08-23T08:26:12.111Z,23.65
2022-08-23T08:28:38.905Z,23.76
2022-08-23T08:31:05.817Z,23.83
2022-08-23T08:33:34.268Z,24.23
2022-08-23T08:36:04.034Z,24.53
2022-08-23T08:38:31.727Z,24.97
2022-08-23T08:41:12.520Z,25.14
2022-08-23T08:43:48.230Z,25.52
2022-08-23T08:46:20.895Z,25.71
2022-08-23T08:48:48.739Z,25.46
2022-08-23T08:51:18.400Z,25.40
2022-08-23T08:53:45.563Z,25.45
2022-08-23T08:56:32.660Z,25.70
2022-08-23T08:59:00.854Z,25.86
2022-08-23T09:01:27.425Z,26.00
2022-08-23T09:03:54.349Z,26.24
2022-08-23T09:06:21.171Z,26.25
2022-08-23T09:09:06.339Z,26.17
2022-08-23T09:11:40.600Z,26.35
2022-08-23T09:14:07.038Z,26.50
2022-08-23T09:16:36.683Z,26.43
2022-08-23T09:19:03.563Z,26.37
2022-08-23T09:21:48.715Z,26.70
2022-08-23T09:24:15.595Z,26.78
2022-08-23T09:26:43.608Z,26.87
2022-08-23T09:29:24.117Z,26.94
2022-08-23T09:31:52.665Z,27.02
2022-08-23T09:34:37.625Z,26.61
2022-08-23T09:37:13.317Z,26.91
2022-08-23T09:39:41.860Z,27.30
2022-08-23T09:42:29.980Z,27.35
2022-08-23T09:44:56.464Z,27.96
2022-08-23T09:47:34.951Z,28.73
2022-08-23T09:50:09.601Z,29.24
2022-08-23T09:52:37.683Z,30.32
2022-08-23T09:55:24.125Z,31.32
2022-08-23T09:57:50.564Z,32.20
2022-08-23T10:00:17.579Z,32.37
2022-08-23T10:02:44.537Z,33.42
2022-08-23T10:05:31.463Z,33.12
2022-08-23T10:08:01.800Z,33.45
2022-08-23T10:10:32.849Z,33.39
2022-08-23T10:12:59.495Z,33.95
2022-08-23T10:15:36.214Z,32.35
2022-08-23T10:18:07.256Z,32.04
2022-08-23T10:20:39.328Z,33.38
2022-08-23T10:23:17.287Z,35.12
2022-08-23T10:25:45.805Z,34.60
2022-08-23T10:28:51.301Z,34.67
2022-08-23T10:31:26.852Z,36.17
2022-08-23T10:33:59.348Z,36.63
2022-08-23T10:36:25.800Z,37.76
2022-08-23T10:38:57.019Z,38.36
2022-08-23T10:41:43.988Z,39.74
2022-08-23T10:44:33.127Z,40.08
2022-08-23T10:47:02.618Z,39.20
2022-08-23T10:49:29.049Z,39.51
2022-08-23T10:51:55.904Z,39.37
2022-08-23T10:54:35.913Z,37.00
2022-08-23T10:57:03.250Z,38.96
2022-08-23T10:59:29.675Z,38.56
2022-08-23T11:01:58.206Z,39.71
2022-08-23T11:04:27.418Z,40.38
2022-08-23T11:06:55.348Z,40.27
2022-08-23T11:09:21.771Z,41.18
2022-08-23T11:12:11.014Z,39.94
2022-08-23T11:14:42.842Z,39.04
2022-08-23T11:17:11.852Z,37.67
2022-08-23T11:19:47.871Z,37.85
2022-08-23T11:22:18.714Z,38.16
2022-08-23T11:24:50.078Z,39.87
2022-08-23T11:27:30.176Z,39.11
2022-08-23T11:29:56.623Z,39.54
2022-08-23T11:32:29.857Z,39.64
2022-08-23T11:35:00.271Z,39.66
2022-08-23T11:37:30.241Z,41.57
2022-08-23T11:39:57.570Z,42.99
2022-08-23T11:42:25.310Z,44.26
2022-08-23T11:44:51.742Z,43.04
2022-08-23T11:47:26.442Z,41.50
2022-08-23T11:50:02.962Z,38.86
2022-08-23T11:52:51.809Z,35.85
2022-08-23T11:55:18.213Z,35.16
2022-08-23T11:57:54.492Z,38.32
2022-08-23T12:00:29.392Z,41.19
2022-08-23T12:03:02.083Z,43.06
2022-08-23T12:05:42.243Z,43.45
2022-08-23T12:08:08.665Z,43.68
2022-08-23T12:10:38.114Z,42.34
2022-08-23T12:13:24.500Z,40.36
2022-08-23T12:16:16.422Z,39.66
2022-08-23T12:18:47.549Z,41.54
2022-08-23T12:21:26.521Z,42.39
2022-08-23T12:24:02.625Z,39.53
2022-08-23T12:26:31.299Z,37.66
2022-08-23T12:29:00.183Z,37.17
2022-08-23T12:31:34.362Z,36.68
2022-08-23T12:34:19.513Z,38.13
2022-08-23T12:36:54.454Z,40.49
2022-08-23T12:39:23.870Z,40.68
2022-08-23T12:41:52.371Z,42.14
2022-08-23T12:44:19.628Z,42.85
2022-08-23T12:46:46.945Z,41.14
2022-08-23T12:49:28.637Z,41.14
2022-08-23T12:51:56.978Z,39.26
2022-08-23T12:54:24.754Z,37.48
2022-08-23T12:56:52.176Z,39.03
2022-08-23T12:59:51.174Z,39.04
2022-08-23T13:02:24.072Z,41.58
2022-08-23T13:04:50.561Z,42.68
2022-08-23T13:07:18.603Z,44.47
2022-08-23T13:09:45.512Z,45.62
2022-08-23T13:12:20.387Z,46.06
2022-08-23T13:14:47.963Z,42.47
2022-08-23T13:17:17.603Z,39.42
2022-08-23T13:19:44.450Z,37.11
2022-08-23T13:22:10.847Z,36.82
2022-08-23T13:24:39.228Z,36.03
2022-08-23T13:27:20.150Z,34.72
2022-08-23T13:29:49.696Z,34.14
2022-08-23T13:32:29.850Z,33.76
2022-08-23T13:35:16.208Z,33.51
2022-08-23T13:37:45.281Z,33.45
2022-08-23T13:40:14.125Z,33.42
2022-08-23T13:42:52.920Z,33.41
2022-08-23T13:45:21.771Z,32.75
2022-08-23T13:47:50.680Z,32.80
2022-08-23T13:50:37.586Z,31.43
2022-08-23T13:53:14.748Z,31.42
2022-08-23T13:55:46.751Z,31.34
2022-08-23T13:58:14.437Z,31.54
2022-08-23T14:00:54.785Z,31.43
2022-08-23T14:03:21.670Z,31.43
2022-08-23T14:05:48.091Z,31.48
2022-08-23T14:08:15.138Z,31.16
2022-08-23T14:10:41.625Z,31.16
2022-08-23T14:13:08.706Z,31.44
2022-08-23T14:18:21.988Z,31.72
2022-08-23T14:20:51.243Z,31.45
2022-08-23T14:23:18.944Z,30.56
2022-08-23T14:25:45.952Z,30.35
2022-08-23T14:28:13.640Z,30.18
2022-08-23T14:30:40.310Z,30.11
2022-08-23T14:33:06.919Z,30.17
2022-08-23T14:35:33.327Z,30.20
2022-08-23T14:38:03.274Z,30.51
2022-08-23T14:40:30.785Z,30.64
2022-08-23T14:42:57.821Z,31.06
2022-08-23T14:45:24.502Z,30.81
2022-08-23T14:47:50.915Z,30.92
2022-08-23T14:50:17.385Z,30.85
2022-08-23T14:52:45.783Z,30.82
2022-08-23T14:55:12.345Z,30.93
2022-08-23T14:57:39.895Z,30.47
2022-08-23T15:00:07.261Z,30.08
2022-08-23T15:02:36.398Z,29.96
2022-08-23T15:05:03.116Z,29.94
2022-08-23T15:07:29.519Z,30.15
2022-08-23T15:09:56.023Z,30.31
2022-08-23T15:15:10.803Z,30.47
2022-08-23T15:17:42.071Z,30.20
2022-08-23T15:20:08.660Z,30.10
2022-08-23T15:22:44.507Z,29.97
2022-08-23T15:25:12.199Z,29.89
2022-08-23T15:27:38.631Z,29.81
2022-08-23T15:30:05.391Z,29.78
2022-08-23T15:32:32.513Z,29.64
2022-08-23T15:34:59.687Z,29.60
2022-08-23T15:37:26.177Z,29.67
2022-08-23T15:39:52.718Z,29.66
2022-08-23T15:42:20.154Z,29.66
2022-08-23T15:44:47.428Z,29.71
2022-08-23T15:47:14.938Z,29.51
2022-08-23T15:49:41.382Z,29.51
2022-08-23T15:52:07.816Z,29.65
2022-08-23T15:54:34.294Z,29.77
2022-08-23T15:57:00.733Z,30.02
2022-08-23T15:59:27.198Z,30.00
2022-08-23T16:01:53.717Z,29.99
2022-08-23T16:04:20.176Z,29.84
2022-08-23T16:06:46.910Z,29.70
2022-08-23T16:09:17.775Z,29.68
2022-08-23T16:11:44.238Z,29.69
2022-08-23T16:14:10.772Z,29.46
2022-08-23T16:16:38.049Z,29.12
2022-08-23T16:19:04.936Z,28.83
2022-08-23T16:21:31.474Z,28.60
2022-08-23T16:23:58.211Z,28.54
2022-08-23T16:26:34.799Z,28.52
2022-08-23T16:29:02.065Z,28.56
2022-08-23T16:31:39.047Z,28.58
2022-08-23T16:34:07.915Z,28.51
2022-08-23T16:36:34.548Z,28.36
2022-08-23T16:39:01.068Z,28.29
2022-08-23T16:41:27.518Z,28.21
2022-08-23T16:43:53.955Z,28.16
2022-08-23T16:46:20.556Z,28.12
2022-08-23T16:48:47.027Z,27.99
2022-08-23T16:51:13.552Z,27.86
2022-08-23T16:53:40.317Z,27.81
2022-08-23T16:56:07.023Z,27.75
2022-08-23T16:58:33.678Z,27.62
2022-08-23T17:01:00.236Z,27.53
2022-08-23T17:03:27.237Z,27.46
2022-08-23T17:05:53.799Z,27.39
2022-08-23T17:08:20.235Z,27.28
2022-08-23T17:10:47.780Z,27.25
2022-08-23T17:13:14.295Z,27.20
2022-08-23T17:15:40.900Z,27.12
2022-08-23T17:18:07.703Z,27.00
2022-08-23T17:20:35.701Z,26.94
2022-08-23T17:23:05.539Z,26.92
2022-08-23T17:25:32.417Z,26.75
2022-08-23T17:27:58.901Z,26.62
2022-08-23T17:30:25.696Z,26.49
2022-08-23T17:32:52.165Z,26.38
2022-08-23T17:35:19.838Z,26.32
2022-08-23T17:37:46.734Z,26.21
2022-08-23T17:40:15.007Z,26.08
2022-08-23T17:42:41.901Z,25.99
2022-08-23T17:45:09.115Z,25.86
2022-08-23T17:47:35.563Z,25.78
2022-08-23T17:50:03.787Z,25.65
2022-08-23T17:52:30.389Z,25.51
2022-08-23T17:54:57.078Z,25.42
2022-08-23T17:57:23.646Z,25.32
2022-08-23T17:59:50.068Z,25.16
2022-08-23T18:02:16.502Z,24.97
2022-08-23T18:04:42.988Z,24.81
2022-08-23T18:07:09.545Z,24.68
2022-08-23T18:09:38.988Z,24.53
2022-08-23T18:12:10.315Z,24.30
2022-08-23T18:14:36.749Z,24.12
2022-08-23T18:17:03.202Z,23.99
2022-08-23T18:19:29.683Z,23.82
2022-08-23T18:21:58.595Z,23.64
2022-08-23T18:24:28.319Z,23.51
2022-08-23T18:27:13.554Z,23.37
2022-08-23T18:29:39.995Z,23.24
2022-08-23T18:32:10.615Z,23.07
2022-08-23T18:34:37.515Z,22.96
2022-08-23T18:37:04.095Z,22.79
2022-08-23T18:39:32.262Z,22.58
2022-08-23T18:42:02.928Z,22.44
2022-08-23T18:44:29.755Z,22.38
2022-08-23T18:46:56.286Z,22.27
2022-08-23T18:49:22.746Z,22.21
2022-08-23T18:51:49.227Z,22.18
2022-08-23T18:54:15.918Z,22.14
2022-08-23T18:56:42.377Z,22.03
2022-08-23T18:59:08.813Z,21.90
2022-08-23T19:01:36.497Z,21.80
2022-08-23T19:04:04.397Z,21.71
2022-08-23T19:06:30.903Z,21.69
2022-08-23T19:08:57.560Z,21.63
2022-08-23T19:11:24.473Z,21.56
2022-08-23T19:13:51.150Z,21.48
2022-08-23T19:16:18.168Z,21.36
2022-08-23T19:18:45.084Z,21.33
2022-08-23T19:21:11.724Z,21.24
2022-08-23T19:23:38.271Z,21.18
2022-08-23T19:26:08.014Z,21.15
2022-08-23T19:28:36.421Z,21.10
2022-08-23T19:31:02.866Z,21.12
2022-08-23T19:33:30.330Z,21.07
2022-08-23T19:35:58.137Z,20.90
2022-08-23T19:38:25.477Z,20.90
2022-08-23T19:40:51.905Z,20.90
2022-08-23T19:43:18.378Z,20.81
2022-08-23T19:45:44.838Z,20.75
2022-08-23T19:48:11.558Z,20.69
2022-08-23T19:50:39.616Z,20.57
2022-08-23T19:53:06.530Z,20.51
2022-08-23T19:55:33.103Z,20.50
2022-08-23T19:57:59.674Z,20.51
2022-08-23T20:00:26.584Z,20.45
2022-08-23T20:02:53.193Z,20.46
2022-08-23T20:05:20.521Z,20.35
2022-08-23T20:07:47.311Z,20.27
2022-08-23T20:10:14.326Z,20.08
2022-08-23T20:12:41.801Z,19.99
2022-08-23T20:15:11.918Z,20.00
2022-08-23T20:17:39.376Z,20.01
2022-08-23T20:20:06.536Z,19.94
2022-08-23T20:22:51.650Z,19.87
2022-08-23T20:25:18.098Z,19.84
2022-08-23T20:27:45.107Z,19.75
2022-08-23T20:30:12.188Z,19.76
2022-08-23T20:32:38.867Z,19.70
2022-08-23T20:35:06.729Z,19.63
2022-08-23T20:37:33.290Z,19.63
2022-08-23T20:39:59.901Z,19.61
2022-08-23T20:42:26.507Z,19.52
2022-08-23T20:44:52.955Z,19.53
2022-08-23T20:47:19.486Z,19.47
2022-08-23T20:49:45.991Z,19.45
2022-08-23T20:52:12.534Z,19.39
2022-08-23T20:54:39.037Z,19.34
2022-08-23T20:57:05.531Z,19.28
2022-08-23T20:59:32.003Z,19.26
2022-08-23T21:01:59.190Z,19.32
2022-08-23T21:04:29.979Z,19.32
2022-08-23T21:06:56.575Z,19.26
2022-08-23T21:09:24.606Z,19.31
2022-08-23T21:11:55.425Z,19.25
2022-08-23T21:14:22.586Z,19.19
2022-08-23T21:16:49.059Z,19.13
2022-08-23T21:19:15.628Z,19.01
2022-08-23T21:21:42.371Z,18.96
2022-08-23T21:24:09.384Z,18.91
2022-08-23T21:26:36.199Z,18.82
2022-08-23T21:29:03.000Z,18.83
2022-08-23T21:31:29.512Z,18.80
2022-08-23T21:33:55.989Z,18.79
2022-08-23T21:36:22.857Z,18.82
2022-08-23T21:38:49.775Z,18.82
2022-08-23T21:41:27.268Z,18.82
2022-08-23T21:43:53.721Z,18.71
2022-08-23T21:46:20.231Z,18.78
2022-08-23T21:48:46.669Z,18.71
2022-08-23T21:51:13.108Z,18.69
2022-08-23T21:53:39.563Z,18.66
2022-08-23T21:56:06.026Z,18.62
2022-08-23T21:58:32.479Z,18.66
2022-08-23T22:00:59.018Z,18.73
2022-08-23T22:03:25.475Z,18.77
2022-08-23T22:05:51.947Z,18.82
2022-08-23T22:08:18.438Z,18.86
2022-08-23T22:10:56.648Z,18.88
2022-08-23T22:13:25.789Z,18.98
2022-08-23T22:15:52.286Z,18.94
2022-08-23T22:18:18.811Z,18.91
2022-08-23T22:20:45.263Z,18.90
2022-08-23T22:23:11.699Z,18.91
2022-08-23T22:25:38.132Z,18.89
2022-08-23T22:28:04.589Z,18.84
2022-08-23T22:30:32.119Z,18.81
2022-08-23T22:32:58.572Z,18.76
2022-08-23T22:35:25.082Z,18.75
2022-08-23T22:38:12.389Z,18.71
2022-08-23T22:40:37.979Z,18.68
2022-08-23T22:43:04.414Z,18.71
2022-08-23T22:45:30.892Z,18.75
2022-08-23T22:47:57.467Z,18.74
2022-08-23T22:50:23.964Z,18.77
2022-08-23T22:52:50.926Z,18.87
2022-08-23T22:55:17.545Z,18.83
2022-08-23T22:57:44.066Z,18.76
2022-08-23T23:00:11.271Z,18.68
2022-08-23T23:02:38.913Z,18.60
2022-08-23T23:05:07.391Z,18.58
2022-08-23T23:07:52.515Z,18.53
2022-08-23T23:10:19.085Z,18.53
2022-08-23T23:12:45.540Z,18.52
2022-08-23T23:15:12.206Z,18.45
2022-08-23T23:17:38.661Z,18.44
2022-08-23T23:20:23.885Z,18.41
2022-08-23T23:22:51.790Z,18.40
2022-08-23T23:25:18.374Z,18.40
2022-08-23T23:27:45.158Z,18.50
2022-08-23T23:30:11.888Z,18.37
2022-08-23T23:32:38.340Z,18.16
2022-08-23T23:35:06.616Z,18.01
2022-08-23T23:37:33.056Z,17.90
2022-08-23T23:42:39.937Z,17.72
2022-08-23T23:45:06.740Z,17.66
2022-08-23T23:47:33.167Z,17.63
2022-08-23T23:49:59.949Z,17.55
2022-08-23T23:52:26.434Z,17.55
2022-08-23T23:54:52.896Z,17.56
2022-08-23T23:57:19.345Z,17.63
2022-08-23T23:59:45.785Z,17.63
